sensor_id;sensor_type;location;lat;lon;timestamp;P1;durP1;ratioP1;P2;durP2;ratioP2
77038;SDS011;65970;50.476;4.840;2023-12-07T00:04:57;9.05;;;4.18;;
77038;SDS011;65970;50.476;4.840;2023-12-07T00:09:58;7.68;;;4.25;;
77038;SDS011;65970;50.476;4.840;2023-12-07T00:14:58;5.57;;;3.30;;
77038;SDS011;65970;50.476;4.840;2023-12-07T00:19:59;6.78;;;4.32;;
77038;SDS011;65970;50.476;4.840;2023-12-07T00:25:00;4.78;;;2.97;;
77038;SDS011;65970;50.476;4.840;2023-12-07T00:30:00;8.00;;;3.78;;
77038;SDS011;65970;50.476;4.840;2023-12-07T00:35:01;7.35;;;3.83;;
77038;SDS011;65970;50.476;4.840;2023-12-07T00:40:01;9.45;;;4.85;;
77038;SDS011;65970;50.476;4.840;2023-12-07T00:45:02;6.22;;;3.38;;
77038;SDS011;65970;50.476;4.840;2023-12-07T00:50:03;6.35;;;3.40;;
77038;SDS011;65970;50.476;4.840;2023-12-07T00:55:04;7.07;;;3.97;;
77038;SDS011;65970;50.476;4.840;2023-12-07T01:00:05;6.57;;;4.57;;
77038;SDS011;65970;50.476;4.840;2023-12-07T01:05:09;8.73;;;5.20;;
77038;SDS011;65970;50.476;4.840;2023-12-07T01:10:09;7.68;;;3.80;;
77038;SDS011;65970;50.476;4.840;2023-12-07T01:15:10;6.47;;;4.00;;
77038;SDS011;65970;50.476;4.840;2023-12-07T01:20:10;6.35;;;4.20;;
77038;SDS011;65970;50.476;4.840;2023-12-07T01:25:11;6.22;;;4.13;;
77038;SDS011;65970;50.476;4.840;2023-12-07T01:30:12;5.88;;;3.83;;
77038;SDS011;65970;50.476;4.840;2023-12-07T01:35:12;4.65;;;3.05;;
77038;SDS011;65970;50.476;4.840;2023-12-07T01:40:13;8.07;;;3.85;;
77038;SDS011;65970;50.476;4.840;2023-12-07T01:45:13;8.15;;;3.97;;
77038;SDS011;65970;50.476;4.840;2023-12-07T01:50:14;4.32;;;2.78;;
77038;SDS011;65970;50.476;4.840;2023-12-07T01:55:15;4.10;;;3.15;;
77038;SDS011;65970;50.476;4.840;2023-12-07T02:00:16;5.85;;;3.38;;
77038;SDS011;65970;50.476;4.840;2023-12-07T02:05:17;4.50;;;3.17;;
77038;SDS011;65970;50.476;4.840;2023-12-07T02:10:18;8.68;;;3.83;;
77038;SDS011;65970;50.476;4.840;2023-12-07T02:15:19;7.70;;;5.00;;
77038;SDS011;65970;50.476;4.840;2023-12-07T02:20:28;7.80;;;4.10;;
77038;SDS011;65970;50.476;4.840;2023-12-07T02:25:51;5.88;;;4.05;;
77038;SDS011;65970;50.476;4.840;2023-12-07T02:30:53;5.68;;;3.97;;
77038;SDS011;65970;50.476;4.840;2023-12-07T02:35:53;7.18;;;4.32;;
77038;SDS011;65970;50.476;4.840;2023-12-07T02:40:54;7.07;;;4.15;;
77038;SDS011;65970;50.476;4.840;2023-12-07T02:45:56;11.32;;;4.28;;
77038;SDS011;65970;50.476;4.840;2023-12-07T02:50:57;8.88;;;4.13;;
77038;SDS011;65970;50.476;4.840;2023-12-07T02:55:58;7.32;;;3.47;;
77038;SDS011;65970;50.476;4.840;2023-12-07T03:00:58;8.00;;;4.07;;
77038;SDS011;65970;50.476;4.840;2023-12-07T03:05:59;6.95;;;3.63;;
77038;SDS011;65970;50.476;4.840;2023-12-07T03:10:59;5.10;;;3.83;;
77038;SDS011;65970;50.476;4.840;2023-12-07T03:16:00;6.65;;;3.55;;
77038;SDS011;65970;50.476;4.840;2023-12-07T03:21:01;5.53;;;3.40;;
77038;SDS011;65970;50.476;4.840;2023-12-07T03:26:02;4.20;;;3.13;;
77038;SDS011;65970;50.476;4.840;2023-12-07T03:31:03;4.85;;;3.47;;
77038;SDS011;65970;50.476;4.840;2023-12-07T03:36:04;6.72;;;3.72;;
77038;SDS011;65970;50.476;4.840;2023-12-07T03:41:04;6.72;;;4.20;;
77038;SDS011;65970;50.476;4.840;2023-12-07T03:46:06;4.82;;;3.72;;
77038;SDS011;65970;50.476;4.840;2023-12-07T03:51:07;7.53;;;4.25;;
77038;SDS011;65970;50.476;4.840;2023-12-07T03:56:08;6.35;;;3.40;;
77038;SDS011;65970;50.476;4.840;2023-12-07T04:01:08;4.80;;;2.92;;
77038;SDS011;65970;50.476;4.840;2023-12-07T04:06:09;5.18;;;3.22;;
77038;SDS011;65970;50.476;4.840;2023-12-07T04:11:10;4.57;;;2.67;;
77038;SDS011;65970;50.476;4.840;2023-12-07T04:16:10;5.25;;;2.92;;
77038;SDS011;65970;50.476;4.840;2023-12-07T04:21:11;6.95;;;3.28;;
77038;SDS011;65970;50.476;4.840;2023-12-07T04:26:11;6.97;;;4.35;;
77038;SDS011;65970;50.476;4.840;2023-12-07T04:31:12;4.80;;;3.15;;
77038;SDS011;65970;50.476;4.840;2023-12-07T04:36:13;4.72;;;2.72;;
77038;SDS011;65970;50.476;4.840;2023-12-07T04:41:13;6.03;;;3.50;;
77038;SDS011;65970;50.476;4.840;2023-12-07T04:46:14;6.05;;;2.92;;
77038;SDS011;65970;50.476;4.840;2023-12-07T04:51:14;6.70;;;3.90;;
77038;SDS011;65970;50.476;4.840;2023-12-07T04:56:15;7.20;;;3.67;;
77038;SDS011;65970;50.476;4.840;2023-12-07T05:01:16;4.50;;;3.45;;
77038;SDS011;65970;50.476;4.840;2023-12-07T05:06:16;7.70;;;3.90;;
77038;SDS011;65970;50.476;4.840;2023-12-07T05:11:17;4.05;;;3.08;;
77038;SDS011;65970;50.476;4.840;2023-12-07T05:16:17;5.18;;;2.97;;
77038;SDS011;65970;50.476;4.840;2023-12-07T05:21:18;5.75;;;3.30;;
77038;SDS011;65970;50.476;4.840;2023-12-07T05:26:18;5.63;;;3.78;;
77038;SDS011;65970;50.476;4.840;2023-12-07T05:31:19;4.45;;;2.80;;
77038;SDS011;65970;50.476;4.840;2023-12-07T05:36:20;4.05;;;2.67;;
77038;SDS011;65970;50.476;4.840;2023-12-07T05:41:20;4.22;;;2.72;;
77038;SDS011;65970;50.476;4.840;2023-12-07T05:46:21;5.65;;;3.40;;
77038;SDS011;65970;50.476;4.840;2023-12-07T05:51:22;7.88;;;4.20;;
77038;SDS011;65970;50.476;4.840;2023-12-07T05:56:23;4.50;;;2.83;;
77038;SDS011;65970;50.476;4.840;2023-12-07T06:01:24;4.78;;;3.25;;
77038;SDS011;65970;50.476;4.840;2023-12-07T06:06:24;4.45;;;3.00;;
77038;SDS011;65970;50.476;4.840;2023-12-07T06:11:25;8.30;;;3.72;;
77038;SDS011;65970;50.476;4.840;2023-12-07T06:16:25;6.60;;;3.80;;
77038;SDS011;65970;50.476;4.840;2023-12-07T06:21:26;4.57;;;3.22;;
77038;SDS011;65970;50.476;4.840;2023-12-07T06:26:26;6.15;;;4.00;;
77038;SDS011;65970;50.476;4.840;2023-12-07T06:31:27;3.90;;;3.13;;
77038;SDS011;65970;50.476;4.840;2023-12-07T06:36:28;3.50;;;2.67;;
77038;SDS011;65970;50.476;4.840;2023-12-07T06:41:28;5.68;;;3.50;;
77038;SDS011;65970;50.476;4.840;2023-12-07T06:46:29;5.10;;;3.78;;
77038;SDS011;65970;50.476;4.840;2023-12-07T06:51:29;3.70;;;2.75;;
77038;SDS011;65970;50.476;4.840;2023-12-07T06:56:30;6.15;;;3.28;;
77038;SDS011;65970;50.476;4.840;2023-12-07T07:01:30;3.72;;;3.05;;
77038;SDS011;65970;50.476;4.840;2023-12-07T07:06:31;3.65;;;2.53;;
77038;SDS011;65970;50.476;4.840;2023-12-07T07:11:31;3.42;;;2.85;;
77038;SDS011;65970;50.476;4.840;2023-12-07T07:16:32;7.55;;;2.90;;
77038;SDS011;65970;50.476;4.840;2023-12-07T07:21:33;3.55;;;3.15;;
77038;SDS011;65970;50.476;4.840;2023-12-07T07:26:33;3.85;;;2.78;;
77038;SDS011;65970;50.476;4.840;2023-12-07T07:31:34;5.60;;;3.13;;
77038;SDS011;65970;50.476;4.840;2023-12-07T07:36:34;8.85;;;3.72;;
77038;SDS011;65970;50.476;4.840;2023-12-07T07:41:35;5.00;;;3.38;;
77038;SDS011;65970;50.476;4.840;2023-12-07T07:46:36;7.25;;;3.22;;
77038;SDS011;65970;50.476;4.840;2023-12-07T07:51:36;4.93;;;2.90;;
77038;SDS011;65970;50.476;4.840;2023-12-07T07:56:37;5.40;;;2.83;;
77038;SDS011;65970;50.476;4.840;2023-12-07T08:01:37;9.05;;;3.58;;
77038;SDS011;65970;50.476;4.840;2023-12-07T08:06:38;3.90;;;2.95;;
77038;SDS011;65970;50.476;4.840;2023-12-07T08:11:38;7.88;;;3.10;;
77038;SDS011;65970;50.476;4.840;2023-12-07T08:16:42;5.05;;;2.80;;
77038;SDS011;65970;50.476;4.840;2023-12-07T08:21:44;5.22;;;2.80;;
77038;SDS011;65970;50.476;4.840;2023-12-07T08:26:44;3.95;;;2.78;;
77038;SDS011;65970;50.476;4.840;2023-12-07T08:31:45;4.45;;;2.92;;
77038;SDS011;65970;50.476;4.840;2023-12-07T08:36:46;3.53;;;2.60;;
77038;SDS011;65970;50.476;4.840;2023-12-07T08:41:46;3.55;;;2.60;;
77038;SDS011;65970;50.476;4.840;2023-12-07T08:46:47;6.90;;;3.15;;
77038;SDS011;65970;50.476;4.840;2023-12-07T08:51:47;3.97;;;2.78;;
77038;SDS011;65970;50.476;4.840;2023-12-07T08:56:48;6.47;;;2.83;;
77038;SDS011;65970;50.476;4.840;2023-12-07T09:01:48;5.97;;;3.63;;
77038;SDS011;65970;50.476;4.840;2023-12-07T09:06:49;6.35;;;3.50;;
77038;SDS011;65970;50.476;4.840;2023-12-07T09:11:49;4.78;;;3.03;;
77038;SDS011;65970;50.476;4.840;2023-12-07T09:16:50;3.92;;;2.95;;
77038;SDS011;65970;50.476;4.840;2023-12-07T09:21:50;9.50;;;4.50;;
77038;SDS011;65970;50.476;4.840;2023-12-07T09:26:51;6.25;;;2.95;;
77038;SDS011;65970;50.476;4.840;2023-12-07T09:31:51;7.63;;;3.38;;
77038;SDS011;65970;50.476;4.840;2023-12-07T09:37:04;6.63;;;4.53;;
77038;SDS011;65970;50.476;4.840;2023-12-07T09:42:08;6.30;;;3.45;;
77038;SDS011;65970;50.476;4.840;2023-12-07T09:47:09;3.67;;;2.60;;
77038;SDS011;65970;50.476;4.840;2023-12-07T09:52:10;5.85;;;3.35;;
77038;SDS011;65970;50.476;4.840;2023-12-07T09:57:11;5.93;;;3.53;;
77038;SDS011;65970;50.476;4.840;2023-12-07T10:02:13;5.80;;;2.67;;
77038;SDS011;65970;50.476;4.840;2023-12-07T10:07:13;9.07;;;3.00;;
77038;SDS011;65970;50.476;4.840;2023-12-07T10:12:14;4.07;;;2.22;;
77038;SDS011;65970;50.476;4.840;2023-12-07T10:17:14;4.53;;;2.10;;
77038;SDS011;65970;50.476;4.840;2023-12-07T10:22:15;2.95;;;2.60;;
77038;SDS011;65970;50.476;4.840;2023-12-07T10:27:15;4.80;;;2.22;;
77038;SDS011;65970;50.476;4.840;2023-12-07T10:32:16;6.40;;;2.38;;
77038;SDS011;65970;50.476;4.840;2023-12-07T10:37:17;3.58;;;2.55;;
77038;SDS011;65970;50.476;4.840;2023-12-07T10:42:17;4.50;;;2.17;;
77038;SDS011;65970;50.476;4.840;2023-12-07T10:47:23;4.20;;;2.05;;
77038;SDS011;65970;50.476;4.840;2023-12-07T10:52:25;4.03;;;1.83;;
77038;SDS011;65970;50.476;4.840;2023-12-07T10:57:32;3.90;;;2.17;;
77038;SDS011;65970;50.476;4.840;2023-12-07T11:02:34;5.40;;;2.80;;
77038;SDS011;65970;50.476;4.840;2023-12-07T11:07:46;3.75;;;2.67;;
77038;SDS011;65970;50.476;4.840;2023-12-07T11:18:26;4.50;;;2.67;;
77038;SDS011;65970;50.476;4.840;2023-12-07T11:23:27;3.17;;;2.35;;
77038;SDS011;65970;50.476;4.840;2023-12-07T11:28:34;3.10;;;1.65;;
77038;SDS011;65970;50.476;4.840;2023-12-07T11:33:39;2.65;;;1.88;;
77038;SDS011;65970;50.476;4.840;2023-12-07T11:44:02;4.38;;;2.42;;
77038;SDS011;65970;50.476;4.840;2023-12-07T11:49:05;4.10;;;2.58;;
77038;SDS011;65970;50.476;4.840;2023-12-07T11:54:06;5.40;;;1.63;;
77038;SDS011;65970;50.476;4.840;2023-12-07T11:59:07;2.10;;;1.90;;
77038;SDS011;65970;50.476;4.840;2023-12-07T12:04:10;4.00;;;3.23;;
77038;SDS011;65970;50.476;4.840;2023-12-07T12:09:14;3.88;;;2.25;;
77038;SDS011;65970;50.476;4.840;2023-12-07T12:14:15;3.10;;;2.67;;
77038;SDS011;65970;50.476;4.840;2023-12-07T12:19:16;4.57;;;2.85;;
77038;SDS011;65970;50.476;4.840;2023-12-07T12:24:17;2.80;;;2.35;;
77038;SDS011;65970;50.476;4.840;2023-12-07T12:29:17;6.38;;;2.65;;
77038;SDS011;65970;50.476;4.840;2023-12-07T12:34:20;3.65;;;2.10;;
77038;SDS011;65970;50.476;4.840;2023-12-07T12:39:26;2.90;;;1.93;;
77038;SDS011;65970;50.476;4.840;2023-12-07T12:44:30;5.50;;;2.63;;
77038;SDS011;65970;50.476;4.840;2023-12-07T12:49:37;2.78;;;1.70;;
77038;SDS011;65970;50.476;4.840;2023-12-07T12:54:38;3.47;;;2.47;;
77038;SDS011;65970;50.476;4.840;2023-12-07T12:59:39;5.38;;;2.47;;
77038;SDS011;65970;50.476;4.840;2023-12-07T13:04:39;3.60;;;2.25;;
77038;SDS011;65970;50.476;4.840;2023-12-07T13:09:40;4.03;;;2.28;;
77038;SDS011;65970;50.476;4.840;2023-12-07T13:14:40;4.38;;;2.22;;
77038;SDS011;65970;50.476;4.840;2023-12-07T13:19:41;2.10;;;1.83;;
77038;SDS011;65970;50.476;4.840;2023-12-07T13:24:42;2.50;;;1.65;;
77038;SDS011;65970;50.476;4.840;2023-12-07T13:29:42;2.00;;;1.85;;
77038;SDS011;65970;50.476;4.840;2023-12-07T13:34:43;2.33;;;1.73;;
77038;SDS011;65970;50.476;4.840;2023-12-07T13:39:43;3.55;;;1.73;;
77038;SDS011;65970;50.476;4.840;2023-12-07T13:44:44;3.03;;;1.83;;
77038;SDS011;65970;50.476;4.840;2023-12-07T13:49:44;3.13;;;2.05;;
77038;SDS011;65970;50.476;4.840;2023-12-07T13:54:45;3.92;;;1.25;;
77038;SDS011;65970;50.476;4.840;2023-12-07T13:59:45;5.32;;;1.67;;
77038;SDS011;65970;50.476;4.840;2023-12-07T14:04:46;6.43;;;1.92;;
77038;SDS011;65970;50.476;4.840;2023-12-07T14:09:47;2.58;;;1.50;;
77038;SDS011;65970;50.476;4.840;2023-12-07T14:14:50;3.50;;;1.70;;
77038;SDS011;65970;50.476;4.840;2023-12-07T14:19:51;2.70;;;1.40;;
77038;SDS011;65970;50.476;4.840;2023-12-07T14:24:51;2.85;;;1.83;;
77038;SDS011;65970;50.476;4.840;2023-12-07T14:29:52;4.47;;;1.63;;
77038;SDS011;65970;50.476;4.840;2023-12-07T14:34:52;2.53;;;1.73;;
77038;SDS011;65970;50.476;4.840;2023-12-07T14:39:53;4.32;;;1.70;;
77038;SDS011;65970;50.476;4.840;2023-12-07T14:44:53;3.13;;;1.58;;
77038;SDS011;65970;50.476;4.840;2023-12-07T14:49:54;2.72;;;1.55;;
77038;SDS011;65970;50.476;4.840;2023-12-07T14:54:55;4.90;;;1.67;;
77038;SDS011;65970;50.476;4.840;2023-12-07T14:59:55;2.42;;;1.58;;
77038;SDS011;65970;50.476;4.840;2023-12-07T15:04:56;2.30;;;1.30;;
77038;SDS011;65970;50.476;4.840;2023-12-07T15:09:56;2.22;;;1.55;;
77038;SDS011;65970;50.476;4.840;2023-12-07T15:14:57;1.80;;;1.30;;
77038;SDS011;65970;50.476;4.840;2023-12-07T15:19:57;6.80;;;2.25;;
77038;SDS011;65970;50.476;4.840;2023-12-07T15:24:58;2.38;;;1.63;;
77038;SDS011;65970;50.476;4.840;2023-12-07T15:29:58;2.42;;;1.33;;
77038;SDS011;65970;50.476;4.840;2023-12-07T15:34:59;2.20;;;1.33;;
77038;SDS011;65970;50.476;4.840;2023-12-07T15:39:59;3.03;;;1.60;;
77038;SDS011;65970;50.476;4.840;2023-12-07T15:45:00;3.03;;;1.83;;
77038;SDS011;65970;50.476;4.840;2023-12-07T15:50:01;3.00;;;1.95;;
77038;SDS011;65970;50.476;4.840;2023-12-07T15:55:01;3.88;;;1.95;;
77038;SDS011;65970;50.476;4.840;2023-12-07T16:00:02;2.15;;;1.63;;
77038;SDS011;65970;50.476;4.840;2023-12-07T16:05:03;5.03;;;1.80;;
77038;SDS011;65970;50.476;4.840;2023-12-07T16:10:07;3.42;;;1.80;;
77038;SDS011;65970;50.476;4.840;2023-12-07T16:15:09;3.08;;;2.35;;
77038;SDS011;65970;50.476;4.840;2023-12-07T16:20:10;4.65;;;1.98;;
77038;SDS011;65970;50.476;4.840;2023-12-07T16:25:10;5.45;;;2.22;;
77038;SDS011;65970;50.476;4.840;2023-12-07T16:30:11;4.55;;;1.90;;
77038;SDS011;65970;50.476;4.840;2023-12-07T16:35:12;3.58;;;2.05;;
77038;SDS011;65970;50.476;4.840;2023-12-07T16:40:12;3.75;;;1.92;;
77038;SDS011;65970;50.476;4.840;2023-12-07T16:45:13;4.57;;;2.15;;
77038;SDS011;65970;50.476;4.840;2023-12-07T16:50:13;4.00;;;2.00;;
77038;SDS011;65970;50.476;4.840;2023-12-07T16:55:14;3.67;;;2.40;;
77038;SDS011;65970;50.476;4.840;2023-12-07T17:00:15;4.55;;;2.35;;
77038;SDS011;65970;50.476;4.840;2023-12-07T17:05:15;4.15;;;2.13;;
77038;SDS011;65970;50.476;4.840;2023-12-07T17:10:16;2.60;;;1.48;;
77038;SDS011;65970;50.476;4.840;2023-12-07T17:15:17;3.42;;;2.03;;
77038;SDS011;65970;50.476;4.840;2023-12-07T17:20:17;2.60;;;1.92;;
77038;SDS011;65970;50.476;4.840;2023-12-07T17:25:18;5.43;;;2.40;;
77038;SDS011;65970;50.476;4.840;2023-12-07T17:30:19;1.83;;;1.58;;
77038;SDS011;65970;50.476;4.840;2023-12-07T17:35:20;3.80;;;2.28;;
77038;SDS011;65970;50.476;4.840;2023-12-07T17:40:21;3.95;;;1.95;;
77038;SDS011;65970;50.476;4.840;2023-12-07T17:45:21;3.30;;;1.90;;
77038;SDS011;65970;50.476;4.840;2023-12-07T17:50:22;2.08;;;1.80;;
77038;SDS011;65970;50.476;4.840;2023-12-07T17:55:22;2.92;;;1.85;;
77038;SDS011;65970;50.476;4.840;2023-12-07T18:00:23;3.22;;;1.90;;
77038;SDS011;65970;50.476;4.840;2023-12-07T18:05:24;2.20;;;1.55;;
77038;SDS011;65970;50.476;4.840;2023-12-07T18:10:24;4.55;;;2.42;;
77038;SDS011;65970;50.476;4.840;2023-12-07T18:15:25;6.30;;;2.92;;
77038;SDS011;65970;50.476;4.840;2023-12-07T18:20:25;6.63;;;2.67;;
77038;SDS011;65970;50.476;4.840;2023-12-07T18:25:26;4.13;;;2.72;;
77038;SDS011;65970;50.476;4.840;2023-12-07T18:30:26;3.88;;;2.10;;
77038;SDS011;65970;50.476;4.840;2023-12-07T18:35:27;5.65;;;3.15;;
77038;SDS011;65970;50.476;4.840;2023-12-07T18:40:27;5.40;;;2.78;;
77038;SDS011;65970;50.476;4.840;2023-12-07T18:45:28;4.75;;;2.75;;
77038;SDS011;65970;50.476;4.840;2023-12-07T18:50:30;5.93;;;3.08;;
77038;SDS011;65970;50.476;4.840;2023-12-07T18:55:30;3.33;;;2.33;;
77038;SDS011;65970;50.476;4.840;2023-12-07T19:00:31;3.35;;;3.05;;
77038;SDS011;65970;50.476;4.840;2023-12-07T19:05:31;2.97;;;2.17;;
77038;SDS011;65970;50.476;4.840;2023-12-07T19:10:32;4.60;;;2.08;;
77038;SDS011;65970;50.476;4.840;2023-12-07T19:15:33;3.25;;;1.98;;
77038;SDS011;65970;50.476;4.840;2023-12-07T19:20:33;1.95;;;1.38;;
77038;SDS011;65970;50.476;4.840;2023-12-07T19:25:34;3.55;;;1.63;;
77038;SDS011;65970;50.476;4.840;2023-12-07T19:30:34;2.45;;;1.77;;
77038;SDS011;65970;50.476;4.840;2023-12-07T19:35:35;2.38;;;1.60;;
77038;SDS011;65970;50.476;4.840;2023-12-07T19:40:35;2.05;;;1.60;;
77038;SDS011;65970;50.476;4.840;2023-12-07T19:45:36;2.35;;;1.60;;
77038;SDS011;65970;50.476;4.840;2023-12-07T19:50:37;2.10;;;1.70;;
77038;SDS011;65970;50.476;4.840;2023-12-07T19:55:37;1.77;;;1.35;;
77038;SDS011;65970;50.476;4.840;2023-12-07T20:00:38;2.38;;;1.75;;
77038;SDS011;65970;50.476;4.840;2023-12-07T20:05:38;2.53;;;1.77;;
77038;SDS011;65970;50.476;4.840;2023-12-07T20:10:39;2.88;;;1.92;;
77038;SDS011;65970;50.476;4.840;2023-12-07T20:15:39;2.40;;;1.48;;
77038;SDS011;65970;50.476;4.840;2023-12-07T20:20:40;3.53;;;1.70;;
77038;SDS011;65970;50.476;4.840;2023-12-07T20:25:40;1.48;;;1.33;;
77038;SDS011;65970;50.476;4.840;2023-12-07T20:30:41;1.13;;;1.02;;
77038;SDS011;65970;50.476;4.840;2023-12-07T20:35:41;1.60;;;1.48;;
77038;SDS011;65970;50.476;4.840;2023-12-07T20:40:42;2.53;;;1.58;;
77038;SDS011;65970;50.476;4.840;2023-12-07T20:45:42;2.22;;;1.30;;
77038;SDS011;65970;50.476;4.840;2023-12-07T20:50:43;1.55;;;1.10;;
77038;SDS011;65970;50.476;4.840;2023-12-07T20:55:44;1.58;;;1.20;;
77038;SDS011;65970;50.476;4.840;2023-12-07T21:00:44;2.25;;;1.48;;
77038;SDS011;65970;50.476;4.840;2023-12-07T21:05:45;3.08;;;1.52;;
77038;SDS011;65970;50.476;4.840;2023-12-07T21:10:45;1.35;;;1.13;;
77038;SDS011;65970;50.476;4.840;2023-12-07T21:15:46;1.92;;;1.70;;
77038;SDS011;65970;50.476;4.840;2023-12-07T21:20:46;3.28;;;2.10;;
77038;SDS011;65970;50.476;4.840;2023-12-07T21:25:47;1.77;;;1.60;;
77038;SDS011;65970;50.476;4.840;2023-12-07T21:30:47;2.58;;;1.08;;
77038;SDS011;65970;50.476;4.840;2023-12-07T21:35:48;2.05;;;1.35;;
77038;SDS011;65970;50.476;4.840;2023-12-07T21:40:49;2.47;;;1.25;;
77038;SDS011;65970;50.476;4.840;2023-12-07T21:45:49;1.75;;;1.17;;
77038;SDS011;65970;50.476;4.840;2023-12-07T21:50:50;2.92;;;1.50;;
77038;SDS011;65970;50.476;4.840;2023-12-07T21:55:50;1.00;;;0.90;;
77038;SDS011;65970;50.476;4.840;2023-12-07T22:00:51;2.53;;;1.38;;
77038;SDS011;65970;50.476;4.840;2023-12-07T22:05:51;1.10;;;0.95;;
77038;SDS011;65970;50.476;4.840;2023-12-07T22:10:52;2.42;;;1.30;;
77038;SDS011;65970;50.476;4.840;2023-12-07T22:15:52;3.13;;;1.20;;
77038;SDS011;65970;50.476;4.840;2023-12-07T22:20:53;7.95;;;1.08;;
77038;SDS011;65970;50.476;4.840;2023-12-07T22:25:54;1.98;;;1.23;;
77038;SDS011;65970;50.476;4.840;2023-12-07T22:30:54;1.38;;;1.00;;
77038;SDS011;65970;50.476;4.840;2023-12-07T22:35:55;1.55;;;1.13;;
77038;SDS011;65970;50.476;4.840;2023-12-07T22:40:55;2.92;;;1.70;;
77038;SDS011;65970;50.476;4.840;2023-12-07T22:45:56;3.97;;;1.60;;
77038;SDS011;65970;50.476;4.840;2023-12-07T22:50:56;4.35;;;1.13;;
77038;SDS011;65970;50.476;4.840;2023-12-07T22:55:57;2.67;;;1.50;;
77038;SDS011;65970;50.476;4.840;2023-12-07T23:00:57;3.35;;;1.83;;
77038;SDS011;65970;50.476;4.840;2023-12-07T23:05:58;4.85;;;2.20;;
77038;SDS011;65970;50.476;4.840;2023-12-07T23:10:58;1.50;;;1.40;;
77038;SDS011;65970;50.476;4.840;2023-12-07T23:15:59;2.65;;;1.58;;
77038;SDS011;65970;50.476;4.840;2023-12-07T23:20:59;1.50;;;1.40;;
77038;SDS011;65970;50.476;4.840;2023-12-07T23:26:00;2.80;;;1.40;;
77038;SDS011;65970;50.476;4.840;2023-12-07T23:31:01;2.65;;;1.92;;
77038;SDS011;65970;50.476;4.840;2023-12-07T23:36:01;2.60;;;1.48;;
77038;SDS011;65970;50.476;4.840;2023-12-07T23:41:02;2.63;;;1.90;;
77038;SDS011;65970;50.476;4.840;2023-12-07T23:46:06;2.58;;;1.40;;
77038;SDS011;65970;50.476;4.840;2023-12-07T23:51:08;2.83;;;1.85;;
77038;SDS011;65970;50.476;4.840;2023-12-07T23:56:09;2.95;;;1.80;;
